Time;durP1;ratioP1;P1;durP2;ratioP2;P2;SDS_P1;SDS_P2;PMS_P1;PMS_P2;Temp;Humidity;BMP_temperature;BMP_pressure;BME280_temperature;BME280_humidity;BME280_pressure;Samples;Min_cycle;Max_cycle;Signal;HPM_P1;HPM_P2
2020/12/20 00:00:00;;;;;;;36.50;17.23;;;;;;;-1.43;100.00;96615.94;1029337;28;20031;-78
2020/12/20 00:00:30;;;;;;;35.70;18.00;;;;;;;-1.51;100.00;96618.97;1033377;28;20026;-78
2020/12/20 00:01:01;;;;;;;44.67;18.08;;;;;;;-1.54;100.00;96616.53;1041152;28;20026;-77
2020/12/20 00:01:37;;;;;;;52.63;19.52;;;;;;;-1.47;100.00;96620.47;1033330;28;20070;-78
2020/12/20 00:02:08;;;;;;;45.60;20.58;;;;;;;-1.63;100.00;96589.25;1041466;28;20085;-78
2020/12/20 00:02:38;;;;;;;35.65;17.42;;;;;;;-1.42;100.00;96615.03;1033343;28;20049;-77
2020/12/20 00:03:09;;;;;;;40.20;19.20;;;;;;;-1.43;100.00;96619.41;1029046;28;20027;-77
2020/12/20 00:03:40;;;;;;;44.85;19.27;;;;;;;-1.42;100.00;96618.44;1033277;28;20022;-78
2020/12/20 00:04:11;;;;;;;44.88;18.58;;;;;;;-1.49;100.00;96598.88;1029172;28;20125;-78
2020/12/20 00:04:42;;;;;;;37.28;17.63;;;;;;;-1.39;100.00;96618.28;1037211;28;20423;-78
2020/12/20 00:05:13;;;;;;;41.70;18.30;;;;;;;-1.56;100.00;96606.19;1032985;28;20026;-77
2020/12/20 00:05:44;;;;;;;41.25;17.90;;;;;;;-1.41;100.00;96614.94;1029324;28;20029;-78
2020/12/20 00:06:15;;;;;;;36.35;16.75;;;;;;;-1.45;100.00;96610.81;1021204;29;20059;-77
2020/12/20 00:06:45;;;;;;;39.45;17.65;;;;;;;-1.41;100.00;96617.53;1033183;28;20094;-78
2020/12/20 00:07:16;;;;;;;37.35;17.90;;;;;;;-1.35;100.00;96604.16;1029061;28;20028;-77
2020/12/20 00:07:47;;;;;;;31.30;16.23;;;;;;;-1.25;100.00;96609.69;1032926;28;20026;-77
2020/12/20 00:08:18;;;;;;;36.75;17.23;;;;;;;-1.37;100.00;96584.34;1033223;28;20105;-78
2020/12/20 00:08:49;;;;;;;33.33;16.40;;;;;;;-1.23;100.00;96600.03;1021263;29;20407;-78
2020/12/20 00:09:21;;;;;;;36.05;17.40;;;;;;;-1.30;100.00;96601.31;1033404;28;20030;-78
2020/12/20 00:09:51;;;;;;;33.83;16.67;;;;;;;-1.45;100.00;96589.97;1033267;28;20022;-78
2020/12/20 00:10:22;;;;;;;34.03;16.80;;;;;;;-1.53;100.00;96592.19;1033213;28;20018;-78
2020/12/20 00:10:53;;;;;;;31.85;17.15;;;;;;;-1.47;100.00;96602.25;1033030;28;20022;-77
2020/12/20 00:11:24;;;;;;;34.85;17.42;;;;;;;-1.44;100.00;96611.66;1033143;28;20637;-77
2020/12/20 00:11:56;;;;;;;36.65;17.70;;;;;;;-1.46;100.00;96598.72;1037064;28;20049;-77
2020/12/20 00:12:27;;;;;;;29.45;15.32;;;;;;;-1.42;100.00;96599.38;1029101;28;20037;-78
2020/12/20 00:12:58;;;;;;;35.88;16.65;;;;;;;-1.40;100.00;96595.75;1025091;29;20034;-77
2020/12/20 00:13:29;;;;;;;30.38;15.40;;;;;;;-1.44;100.00;96601.25;1028936;28;20440;-77
2020/12/20 00:13:59;;;;;;;34.83;17.58;;;;;;;-1.53;100.00;96603.44;1033033;28;20029;-78
2020/12/20 00:14:30;;;;;;;30.77;16.13;;;;;;;-1.59;100.00;96587.31;1032936;28;20018;-78
2020/12/20 00:15:02;;;;;;;37.28;18.00;;;;;;;-1.56;100.00;96590.56;1033030;28;20124;-77
2020/12/20 00:15:33;;;;;;;33.47;16.42;;;;;;;-1.48;100.00;96599.72;1037100;28;20544;-77
2020/12/20 00:16:03;;;;;;;35.13;16.13;;;;;;;-1.49;100.00;96604.09;1028901;28;20023;-78
2020/12/20 00:16:34;;;;;;;31.55;15.57;;;;;;;-1.43;100.00;96593.34;1041546;28;20026;-77
2020/12/20 00:17:07;;;;;;;35.28;16.50;;;;;;;-1.55;100.00;96584.44;1041120;28;20028;-77
2020/12/20 00:17:38;;;;;;;34.55;15.23;;;;;;;-1.46;100.00;96598.72;1032451;28;20018;-77
2020/12/20 00:18:10;;;;;;;31.08;14.95;;;;;;;-1.46;100.00;96598.72;1029001;28;20023;-78
2020/12/20 00:18:40;;;;;;;33.28;15.90;;;;;;;-1.47;100.00;96591.81;1029206;28;20019;-78
2020/12/20 00:19:11;;;;;;;30.90;15.43;;;;;;;-1.58;100.00;96575.97;1029070;28;20388;-77
2020/12/20 00:19:42;;;;;;;33.75;15.63;;;;;;;-1.57;100.00;96591.50;1028922;28;20365;-78
2020/12/20 00:20:13;;;;;;;45.60;16.38;;;;;;;-1.62;100.00;96584.84;1032880;28;20029;-77
2020/12/20 00:20:43;;;;;;;33.08;15.23;;;;;;;-1.55;100.00;96597.47;1037215;28;20017;-78
2020/12/20 00:21:16;;;;;;;35.78;16.45;;;;;;;-1.58;100.00;96602.00;1028944;28;20030;-78
2020/12/20 00:21:47;;;;;;;33.08;15.48;;;;;;;-1.67;100.00;96579.06;1037348;28;20022;-77
2020/12/20 00:22:17;;;;;;;49.65;18.45;;;;;;;-1.76;100.00;96570.00;1041337;28;20025;-77
2020/12/20 00:22:48;;;;;;;38.30;17.80;;;;;;;-1.58;100.00;96594.19;1033190;28;20030;-77
2020/12/20 00:23:19;;;;;;;42.22;18.50;;;;;;;-1.55;100.00;96607.03;1029170;28;20031;-78
2020/12/20 00:23:49;;;;;;;42.13;18.33;;;;;;;-1.58;100.00;96609.81;1021333;28;20027;-78
2020/12/20 00:24:20;;;;;;;42.50;18.50;;;;;;;-1.60;100.00;96603.84;1029200;28;20496;-78
2020/12/20 00:24:51;;;;;;;38.75;16.80;;;;;;;-1.56;100.00;96602.75;1025175;28;20086;-79
2020/12/20 00:25:22;;;;;;;36.92;16.85;;;;;;;-1.55;100.00;96607.03;1037020;28;20021;-78
2020/12/20 00:25:52;;;;;;;33.17;15.35;;;;;;;-1.50;100.00;96607.63;1029123;28;20033;-78
2020/12/20 00:26:23;;;;;;;43.25;17.58;;;;;;;-1.55;100.00;96599.22;1025073;29;20027;-78
2020/12/20 00:26:55;;;;;;;37.28;16.77;;;;;;;-1.57;100.00;96601.06;1029167;28;20046;-78
2020/12/20 00:27:27;;;;;;;43.08;18.70;;;;;;;-1.60;100.00;96596.03;1028825;28;20475;-78
2020/12/20 00:27:58;;;;;;;38.10;17.58;;;;;;;-1.59;100.00;96602.94;1025223;29;20027;-77
2020/12/20 00:28:29;;;;;;;35.38;17.75;;;;;;;-1.67;100.00;96584.28;1033299;28;20026;-78
2020/12/20 00:28:59;;;;;;;33.33;16.85;;;;;;;-1.55;100.00;96594.88;1033055;28;20026;-77
2020/12/20 00:29:32;;;;;;;34.17;17.58;;;;;;;-1.51;100.00;96595.53;1033072;28;20061;-78
2020/12/20 00:30:04;;;;;;;40.53;16.92;;;;;;;-1.61;100.00;96583.94;1029165;28;20026;-77
2020/12/20 00:30:35;;;;;;;35.75;16.92;;;;;;;-1.56;100.00;96597.56;1028612;28;20074;-78
2020/12/20 00:31:06;;;;;;;34.47;16.88;;;;;;;-1.64;100.00;96581.50;1037217;28;20030;-77
2020/12/20 00:31:37;;;;;;;44.15;18.67;;;;;;;-1.58;100.00;96595.03;1028989;28;20091;-77
2020/12/20 00:32:09;;;;;;;37.78;17.20;;;;;;;-1.50;100.00;96586.78;1036940;28;20438;-78
2020/12/20 00:32:40;;;;;;;32.60;17.20;;;;;;;-1.63;100.00;96564.97;1029288;28;20025;-78
2020/12/20 00:33:11;;;;;;;43.38;17.77;;;;;;;-1.68;100.00;96565.22;1033022;28;20097;-77
2020/12/20 00:33:42;;;;;;;34.90;17.38;;;;;;;-1.68;100.00;96551.38;1033254;28;20078;-78
2020/12/20 00:34:13;;;;;;;36.25;17.90;;;;;;;-1.56;100.00;96584.53;1024989;29;20393;-78
2020/12/20 00:34:44;;;;;;;30.90;16.17;;;;;;;-1.53;100.00;96581.75;1033314;28;20022;-77
2020/12/20 00:35:24;;;;;;;38.05;17.35;;;;;;;-1.63;100.00;96570.19;1032839;28;20018;-77
2020/12/20 00:35:55;;;;;;;34.40;17.75;;;;;;;-1.60;100.00;96578.66;1032989;28;20015;-77
2020/12/20 00:36:26;;;;;;;32.95;16.55;;;;;;;-1.66;100.00;96573.78;1037094;28;20018;-78
2020/12/20 00:36:56;;;;;;;35.30;17.52;;;;;;;-1.53;100.00;96573.94;1032784;28;20018;-78
2020/12/20 00:37:27;;;;;;;36.85;17.38;;;;;;;-1.59;100.00;96582.09;1037213;28;20113;-77
2020/12/20 00:37:58;;;;;;;34.92;17.20;;;;;;;-1.59;100.00;96576.88;1037179;28;20029;-78
2020/12/20 00:38:29;;;;;;;34.85;16.58;;;;;;;-1.63;100.00;96567.56;1041596;28;20077;-78
2020/12/20 00:39:00;;;;;;;37.78;17.67;;;;;;;-1.58;100.00;96575.97;1029067;28;20022;-77
2020/12/20 00:39:34;;;;;;;39.15;17.60;;;;;;;-1.62;100.00;96564.03;1024984;29;20114;-78
2020/12/20 00:40:07;;;;;;;36.25;17.95;;;;;;;-1.74;100.00;96558.59;1033159;28;20026;-78
2020/12/20 00:40:38;;;;;;;38.15;17.83;;;;;;;-1.60;100.00;96583.88;1037106;28;20022;-77
2020/12/20 00:41:22;;;;;;;40.85;17.75;;;;;;;-1.61;100.00;96571.75;1024977;28;20349;-77
2020/12/20 00:41:55;;;;;;;34.17;17.08;;;;;;;-1.57;100.00;96575.88;1041487;28;20032;-78
2020/12/20 00:42:28;;;;;;;51.38;17.98;;;;;;;-1.62;100.00;96577.03;1029131;28;20042;-78
2020/12/20 00:42:59;;;;;;;50.58;19.75;;;;;;;-1.72;100.00;96555.91;1028945;28;20114;-77
2020/12/20 00:43:30;;;;;;;41.17;18.40;;;;;;;-1.62;100.00;96587.47;1041079;28;20045;-78
2020/12/20 00:44:00;;;;;;;40.58;18.95;;;;;;;-1.80;100.00;96548.50;1032874;28;20533;-77
2020/12/20 00:44:32;;;;;;;40.75;17.60;;;;;;;-1.76;100.00;96554.38;1033215;28;20018;-78
2020/12/20 00:45:03;;;;;;;38.05;18.45;;;;;;;-1.57;100.00;96573.28;1029014;28;20029;-77
2020/12/20 00:45:33;;;;;;;40.13;17.38;;;;;;;-1.68;100.00;96548.75;1029023;28;20027;-78
2020/12/20 00:46:04;;;;;;;39.10;17.60;;;;;;;-1.58;100.00;96584.63;1037102;28;20450;-78
2020/12/20 00:46:35;;;;;;;39.70;18.63;;;;;;;-1.65;100.00;96559.03;1025105;28;20110;-78
2020/12/20 00:47:06;;;;;;;34.22;16.58;;;;;;;-1.66;100.00;96559.94;1032875;28;20658;-78
2020/12/20 00:47:37;;;;;;;37.13;17.90;;;;;;;-1.54;100.00;96580.06;1033113;28;20023;-78
2020/12/20 00:48:08;;;;;;;37.33;17.58;;;;;;;-1.62;100.00;96580.50;1037138;28;20033;-77
2020/12/20 00:48:39;;;;;;;31.33;16.45;;;;;;;-1.64;100.00;96564.09;1037044;28;20089;-78
2020/12/20 00:49:09;;;;;;;35.85;16.92;;;;;;;-1.55;100.00;96578.38;1041182;28;20028;-77
2020/12/20 00:49:40;;;;;;;36.40;17.50;;;;;;;-1.62;100.00;96583.13;1032827;28;20026;-78
2020/12/20 00:50:11;;;;;;;35.45;16.88;;;;;;;-1.55;100.00;96578.38;1029039;28;20537;-78
2020/12/20 00:50:42;;;;;;;39.63;17.38;;;;;;;-1.57;100.00;96575.03;1037087;28;20555;-78
2020/12/20 00:51:12;;;;;;;34.45;16.60;;;;;;;-1.57;100.00;96577.63;1033006;28;20018;-78
2020/12/20 00:51:43;;;;;;;33.22;17.65;;;;;;;-1.61;100.00;96571.75;1037100;28;20097;-78
2020/12/20 00:52:14;;;;;;;32.03;16.92;;;;;;;-1.58;100.00;96573.38;1036830;28;20029;-78
2020/12/20 00:52:44;;;;;;;36.90;16.80;;;;;;;-1.61;100.00;96568.31;1033077;28;20088;-78
2020/12/20 00:53:15;;;;;;;36.30;17.02;;;;;;;-1.60;100.00;96573.44;1032742;28;20029;-77
2020/12/20 00:53:46;;;;;;;35.45;16.10;;;;;;;-1.61;100.00;96574.38;1024776;28;20114;-77
2020/12/20 00:54:17;;;;;;;33.60;15.98;;;;;;;-1.56;100.00;96572.34;1028951;28;20090;-78
2020/12/20 00:54:47;;;;;;;32.65;15.80;;;;;;;-1.56;100.00;96563.69;1033132;28;20415;-78
2020/12/20 00:55:18;;;;;;;31.20;15.10;;;;;;;-1.48;100.00;96571.94;1036967;28;20022;-77
2020/12/20 00:55:48;;;;;;;31.67;15.95;;;;;;;-1.48;100.00;96569.31;1028961;28;20510;-78
2020/12/20 00:56:19;;;;;;;29.73;15.95;;;;;;;-1.65;100.00;96552.03;1028937;28;20018;-78
2020/12/20 00:56:50;;;;;;;33.83;15.82;;;;;;;-1.53;100.00;96573.94;1025132;29;20027;-78
2020/12/20 00:57:21;;;;;;;27.65;14.38;;;;;;;-1.55;100.00;96570.56;1032780;28;20578;-78
2020/12/20 00:57:51;;;;;;;31.60;16.60;;;;;;;-1.57;100.00;96575.03;1028896;28;20027;-78
2020/12/20 00:58:22;;;;;;;30.98;16.20;;;;;;;-1.67;100.00;96556.50;1037094;28;20117;-78
2020/12/20 00:58:53;;;;;;;27.90;14.98;;;;;;;-1.56;100.00;96558.50;1029125;28;20561;-78
2020/12/20 00:59:24;;;;;;;34.30;15.20;;;;;;;-1.50;100.00;96558.13;1028871;28;20031;-78
2020/12/20 00:59:55;;;;;;;30.20;15.18;;;;;;;-1.48;100.00;96566.72;1029008;28;20026;-78
2020/12/20 01:00:25;;;;;;;29.65;15.23;;;;;;;-1.52;100.00;96562.59;1025047;28;20023;-78
2020/12/20 01:00:56;;;;;;;31.58;14.63;;;;;;;-1.68;100.00;96549.59;1032898;28;20093;-78
2020/12/20 01:01:27;;;;;;;27.65;13.75;;;;;;;-1.58;100.00;96557.75;1028995;28;20023;-77
2020/12/20 01:01:58;;;;;;;25.35;14.48;;;;;;;-1.81;100.00;96522.56;1033057;28;20041;-78
2020/12/20 01:02:29;;;;;;;23.75;13.77;;;;;;;-1.45;100.00;96563.91;1032937;28;20479;-78
2020/12/20 01:03:00;;;;;;;24.02;13.60;;;;;;;-1.45;100.00;96557.88;1032976;28;20333;-77
2020/12/20 01:03:31;;;;;;;25.08;13.65;;;;;;;-1.64;100.00;96543.28;1032965;28;20058;-77
2020/12/20 01:04:02;;;;;;;25.50;14.07;;;;;;;-1.60;100.00;96543.94;1028996;28;20125;-78
2020/12/20 01:04:32;;;;;;;26.25;14.30;;;;;;;-1.54;100.00;96544.44;1036972;28;20509;-78
2020/12/20 01:05:03;;;;;;;24.13;13.18;;;;;;;-1.51;100.00;96553.88;1036873;28;20022;-77
2020/12/20 01:05:34;;;;;;;24.98;13.68;;;;;;;-1.61;100.00;96532.69;1025011;28;20024;-78
2020/12/20 01:06:05;;;;;;;25.70;13.55;;;;;;;-1.58;100.00;96531.69;1037083;28;20026;-78
2020/12/20 01:06:36;;;;;;;25.67;13.40;;;;;;;-1.60;100.00;96531.78;1032883;28;20022;-77
2020/12/20 01:07:07;;;;;;;25.65;13.40;;;;;;;-1.48;100.00;96558.03;1025033;28;20083;-78
2020/12/20 01:07:37;;;;;;;25.33;13.15;;;;;;;-1.56;100.00;96545.47;1020937;29;20527;-78
2020/12/20 01:08:09;;;;;;;22.88;13.13;;;;;;;-1.64;100.00;96525.06;1032998;28;20517;-77
2020/12/20 01:08:40;;;;;;;29.92;14.18;;;;;;;-1.67;100.00;96527.00;1028900;28;20018;-78
2020/12/20 01:09:15;;;;;;;25.05;14.30;;;;;;;-1.60;100.00;96534.41;1028897;28;20030;-77
2020/12/20 01:09:46;;;;;;;29.05;13.23;;;;;;;-1.42;100.00;96553.34;1037321;28;20613;-78
2020/12/20 01:10:17;;;;;;;24.30;13.18;;;;;;;-1.53;100.00;96529.69;1033214;28;20023;-77
2020/12/20 01:10:48;;;;;;;24.60;13.68;;;;;;;-1.61;100.00;96526.66;1033089;28;20030;-78
2020/12/20 01:11:19;;;;;;;22.52;13.50;;;;;;;-1.54;100.00;96534.03;1033095;28;20026;-77
2020/12/20 01:11:50;;;;;;;23.48;13.63;;;;;;;-1.48;100.00;96545.03;1032598;28;20035;-77
2020/12/20 01:12:20;;;;;;;26.40;13.93;;;;;;;-1.49;100.00;96538.16;1024915;28;20026;-78
2020/12/20 01:12:51;;;;;;;24.70;13.65;;;;;;;-1.52;100.00;96541.75;1028709;28;20053;-77
2020/12/20 01:13:22;;;;;;;27.42;13.30;;;;;;;-1.54;100.00;96536.63;1033056;28;20422;-77
2020/12/20 01:13:52;;;;;;;26.92;13.98;;;;;;;-1.68;100.00;96520.13;1033315;28;20033;-78
2020/12/20 01:14:23;;;;;;;24.17;13.35;;;;;;;-1.51;100.00;96556.47;1033190;28;20022;-78
2020/12/20 01:14:54;;;;;;;26.95;14.82;;;;;;;-1.48;100.00;96553.69;1033048;28;20029;-77
2020/12/20 01:15:29;;;;;;;27.30;13.90;;;;;;;-1.46;100.00;96551.84;1037235;28;20032;-77
2020/12/20 01:16:00;;;;;;;26.10;14.18;;;;;;;-1.41;100.00;96557.63;1031016;28;20019;-77
2020/12/20 01:16:31;;;;;;;25.42;14.20;;;;;;;-1.42;100.00;96558.53;1039086;28;20026;-78
2020/12/20 01:17:03;;;;;;;28.90;14.25;;;;;;;-1.41;100.00;96554.16;1026915;29;20027;-77
2020/12/20 01:17:36;;;;;;;26.05;14.50;;;;;;;-1.52;100.00;96529.56;1034842;28;20441;-77
2020/12/20 01:18:07;;;;;;;24.58;13.48;;;;;;;-1.55;100.00;96529.75;1035023;28;20022;-77
2020/12/20 01:18:37;;;;;;;25.25;13.45;;;;;;;-1.42;100.00;96549.91;1035282;28;20073;-78
2020/12/20 01:19:08;;;;;;;24.08;13.20;;;;;;;-1.43;100.00;96553.41;1038981;28;20125;-77
2020/12/20 01:19:39;;;;;;;26.48;13.93;;;;;;;-1.46;100.00;96549.25;1034992;28;20061;-77
2020/12/20 01:20:10;;;;;;;27.85;14.57;;;;;;;-1.41;100.00;96554.16;1026796;29;20046;-77
2020/12/20 01:20:41;;;;;;;25.00;13.45;;;;;;;-1.38;100.00;96561.81;1034475;28;20041;-77
2020/12/20 01:21:13;;;;;;;23.02;13.25;;;;;;;-1.46;100.00;96544.03;1026666;28;20023;-78
2020/12/20 01:21:43;;;;;;;24.30;13.73;;;;;;;-1.36;100.00;96549.53;1039182;28;20025;-77
2020/12/20 01:22:14;;;;;;;24.70;14.00;;;;;;;-1.51;100.00;96540.84;1030854;28;20262;-77
2020/12/20 01:22:45;;;;;;;25.83;14.18;;;;;;;-1.44;100.00;96543.94;1030915;28;20026;-77
2020/12/20 01:23:15;;;;;;;26.48;13.40;;;;;;;-1.44;100.00;96549.16;1038617;28;20021;-77
2020/12/20 01:23:47;;;;;;;25.58;13.70;;;;;;;-1.46;100.00;96551.84;1042749;28;20025;-77
2020/12/20 01:24:18;;;;;;;23.83;13.73;;;;;;;-1.48;100.00;96538.06;1034661;28;20122;-78
2020/12/20 01:24:49;;;;;;;20.83;12.68;;;;;;;-1.33;100.00;96549.38;1038605;28;20083;-77
2020/12/20 01:25:20;;;;;;;25.30;13.85;;;;;;;-1.52;100.00;96532.16;1034630;28;20026;-76
2020/12/20 01:25:50;;;;;;;25.15;13.50;;;;;;;-1.52;100.00;96531.34;1034754;28;20026;-77
2020/12/20 01:26:22;;;;;;;23.08;13.55;;;;;;;-1.34;100.00;96545.94;1031068;28;20030;-78
2020/12/20 01:26:53;;;;;;;21.88;12.45;;;;;;;-1.27;100.00;96549.03;1030436;28;20027;-78
2020/12/20 01:27:23;;;;;;;21.80;12.23;;;;;;;-1.32;100.00;96548.44;1030449;28;20396;-78
2020/12/20 01:27:54;;;;;;;22.25;13.60;;;;;;;-1.40;100.00;96555.84;1030083;28;20026;-78
2020/12/20 01:28:26;;;;;;;23.63;13.05;;;;;;;-1.53;100.00;96537.50;1032433;28;20498;-77
2020/12/20 01:28:57;;;;;;;22.15;12.52;;;;;;;-1.35;100.00;96551.22;1036088;28;20395;-77
2020/12/20 01:29:28;;;;;;;22.35;12.38;;;;;;;-1.41;100.00;96562.84;1024226;28;20118;-78
2020/12/20 01:29:58;;;;;;;22.35;12.25;;;;;;;-1.38;100.00;96559.22;1036446;28;20026;-78
2020/12/20 01:30:29;;;;;;;23.83;12.98;;;;;;;-1.34;100.00;96553.75;1028203;28;20023;-78
2020/12/20 01:31:03;;;;;;;22.40;12.82;;;;;;;-1.35;100.00;96552.06;1032010;28;20495;-77
2020/12/20 01:31:33;;;;;;;25.48;13.60;;;;;;;-1.63;100.00;96507.69;1032343;28;20153;-78
2020/12/20 01:32:04;;;;;;;24.30;12.85;;;;;;;-1.58;100.00;96526.50;1028678;28;20027;-78
2020/12/20 01:32:35;;;;;;;25.55;13.63;;;;;;;-1.45;100.00;96550.91;1032419;28;20053;-78
2020/12/20 01:33:06;;;;;;;24.98;13.15;;;;;;;-1.43;100.00;96548.22;1028249;28;20023;-77
2020/12/20 01:33:38;;;;;;;24.63;13.70;;;;;;;-1.44;100.00;96549.97;1028389;28;20035;-77
2020/12/20 01:34:09;;;;;;;24.00;13.18;;;;;;;-1.54;100.00;96538.41;1032567;28;20023;-77
2020/12/20 01:34:40;;;;;;;25.67;13.45;;;;;;;-1.46;100.00;96540.56;1032678;28;20033;-77
2020/12/20 01:35:13;;;;;;;24.95;13.52;;;;;;;-1.48;100.00;96547.63;1032210;28;20023;-77
2020/12/20 01:35:44;;;;;;;25.10;13.32;;;;;;;-1.44;100.00;96552.59;1032491;28;20026;-77
2020/12/20 01:36:15;;;;;;;25.70;14.02;;;;;;;-1.49;100.00;96552.00;1020585;29;20023;-77
2020/12/20 01:36:45;;;;;;;25.17;13.50;;;;;;;-1.48;100.00;96543.28;1024464;28;20035;-77
2020/12/20 01:37:16;;;;;;;26.38;13.55;;;;;;;-1.50;100.00;96536.47;1032625;28;20498;-77
2020/12/20 01:37:47;;;;;;;25.70;13.65;;;;;;;-1.50;100.00;96533.84;1028783;28;20503;-78
2020/12/20 01:38:18;;;;;;;22.73;13.52;;;;;;;-1.42;100.00;96552.50;1040792;28;20029;-78
2020/12/20 01:38:48;;;;;;;23.33;13.55;;;;;;;-1.46;100.00;96535.34;1024314;29;20058;-78
2020/12/20 01:39:19;;;;;;;24.92;13.52;;;;;;;-1.52;100.00;96526.13;1020709;29;20024;-78
2020/12/20 01:39:50;;;;;;;26.02;14.10;;;;;;;-1.38;100.00;96543.56;1020531;29;20476;-78
2020/12/20 01:40:20;;;;;;;24.35;13.85;;;;;;;-1.41;100.00;96549.81;1032540;28;20018;-77
2020/12/20 01:40:52;;;;;;;24.58;13.05;;;;;;;-1.41;100.00;96544.59;1028624;28;20034;-78
2020/12/20 01:41:22;;;;;;;23.77;13.75;;;;;;;-1.34;100.00;96537.28;1028623;28;20029;-77
2020/12/20 01:41:54;;;;;;;23.98;13.50;;;;;;;-1.39;100.00;96542.75;1024764;28;20495;-77
2020/12/20 01:42:25;;;;;;;26.00;13.38;;;;;;;-1.41;100.00;96544.59;1040718;28;20030;-78
2020/12/20 01:42:55;;;;;;;24.60;13.35;;;;;;;-1.48;100.00;96548.50;1028638;28;20065;-77
2020/12/20 01:43:39;;;;;;;26.50;13.23;;;;;;;-1.47;100.00;96524.09;1032416;28;20022;-78
2020/12/20 01:44:10;;;;;;;25.42;12.25;;;;;;;-1.51;100.00;96522.63;1024553;28;20027;-78
2020/12/20 01:44:41;;;;;;;22.88;12.57;;;;;;;-1.52;100.00;96510.50;1036572;28;20092;-78
2020/12/20 01:45:12;;;;;;;21.88;12.65;;;;;;;-1.37;100.00;96540.06;1028247;28;20061;-77
2020/12/20 01:45:42;;;;;;;21.30;12.43;;;;;;;-1.41;100.00;96539.41;1028657;28;20015;-77
2020/12/20 01:46:16;;;;;;;24.70;13.18;;;;;;;-1.43;100.00;96530.84;1032643;28;20030;-77
2020/12/20 01:46:47;;;;;;;24.73;12.65;;;;;;;-1.39;100.00;96536.72;1032588;28;20026;-77
2020/12/20 01:47:17;;;;;;;21.13;12.05;;;;;;;-1.31;100.00;96534.47;1028683;28;20031;-77
2020/12/20 01:47:48;;;;;;;17.45;11.25;;;;;;;-1.33;100.00;96542.38;1032540;28;20023;-78
2020/12/20 01:48:21;;;;;;;23.98;12.93;;;;;;;-1.41;100.00;96525.50;1036775;28;20030;-78
2020/12/20 01:48:52;;;;;;;23.30;13.00;;;;;;;-1.34;100.00;96539.88;1028474;28;20061;-77
2020/12/20 01:49:23;;;;;;;23.23;13.02;;;;;;;-1.40;100.00;96522.81;1036468;28;20022;-77
2020/12/20 01:49:55;;;;;;;23.83;13.52;;;;;;;-1.32;100.00;96538.03;1020545;29;20054;-78
2020/12/20 01:50:26;;;;;;;23.33;12.77;;;;;;;-1.39;100.00;96536.72;1040598;28;20104;-77
2020/12/20 01:50:57;;;;;;;23.48;12.50;;;;;;;-1.41;100.00;96536.78;1024686;28;20031;-77
2020/12/20 01:51:27;;;;;;;22.70;12.30;;;;;;;-1.51;100.00;96517.41;1032905;28;20028;-78
2020/12/20 01:51:58;;;;;;;24.67;13.43;;;;;;;-1.38;100.00;96536.59;1028538;28;20074;-77
2020/12/20 01:52:29;;;;;;;20.13;11.98;;;;;;;-1.33;100.00;96537.16;1045299;28;20072;-78
2020/12/20 01:53:00;;;;;;;22.08;12.48;;;;;;;-1.42;100.00;96526.47;1032657;28;20026;-78
2020/12/20 01:53:30;;;;;;;25.05;12.75;;;;;;;-1.27;100.00;96533.41;1032519;28;20024;-77
2020/12/20 01:54:01;;;;;;;23.83;12.57;;;;;;;-1.23;100.00;96541.88;1028675;28;20026;-77
2020/12/20 01:54:32;;;;;;;24.80;13.23;;;;;;;-1.28;100.00;96528.28;1028653;28;20081;-78
2020/12/20 01:55:02;;;;;;;24.30;13.00;;;;;;;-1.35;100.00;96527.78;1032520;28;20034;-77
2020/12/20 01:55:33;;;;;;;23.90;12.48;;;;;;;-1.34;100.00;96543.31;1024599;29;20027;-77
2020/12/20 01:56:04;;;;;;;21.13;12.13;;;;;;;-1.31;100.00;96539.69;1032611;28;20022;-78
2020/12/20 01:56:35;;;;;;;22.35;11.88;;;;;;;-1.30;100.00;96541.38;1032778;28;20015;-78
2020/12/20 01:57:06;;;;;;;22.73;13.05;;;;;;;-1.22;100.00;96543.53;1020639;28;20038;-78
2020/12/20 01:57:36;;;;;;;23.45;13.05;;;;;;;-1.25;100.00;96544.56;1036591;28;20022;-78
2020/12/20 01:58:07;;;;;;;24.60;12.68;;;;;;;-1.41;100.00;96531.59;1028870;28;20033;-78
2020/12/20 01:58:38;;;;;;;20.23;13.10;;;;;;;-1.43;100.00;96525.63;1032821;28;20022;-77
2020/12/20 01:59:08;;;;;;;21.13;12.13;;;;;;;-1.31;100.00;96549.28;1032573;28;20487;-77
2020/12/20 01:59:39;;;;;;;20.80;12.23;;;;;;;-1.44;100.00;96536.97;1037083;28;20022;-78
2020/12/20 02:00:10;;;;;;;21.85;12.75;;;;;;;-1.37;100.00;96550.47;1036905;28;20029;-78
2020/12/20 02:00:41;;;;;;;23.70;12.48;;;;;;;-1.37;100.00;96543.50;1021026;29;20015;-78
2020/12/20 02:01:11;;;;;;;20.95;12.35;;;;;;;-1.33;100.00;96547.59;1032766;28;20073;-77
2020/12/20 02:01:42;;;;;;;21.83;12.57;;;;;;;-1.36;100.00;96547.78;1028765;28;20027;-78
2020/12/20 02:02:13;;;;;;;22.20;12.45;;;;;;;-1.44;100.00;96529.16;1028811;28;20085;-78
2020/12/20 02:02:43;;;;;;;20.40;12.05;;;;;;;-1.46;100.00;96523.19;1020954;28;20417;-78
2020/12/20 02:03:14;;;;;;;22.05;12.82;;;;;;;-1.36;100.00;96541.72;1032708;28;20023;-77
2020/12/20 02:03:45;;;;;;;22.33;12.38;;;;;;;-1.43;100.00;96520.41;1028910;28;20027;-78
2020/12/20 02:04:16;;;;;;;20.73;12.13;;;;;;;-1.34;100.00;96545.94;1032713;28;20022;-78
2020/12/20 02:04:47;;;;;;;23.55;13.05;;;;;;;-1.59;100.00;96503.97;1020758;28;20019;-77
2020/12/20 02:05:18;;;;;;;22.13;12.93;;;;;;;-1.45;100.00;96530.06;1028768;28;20455;-77
2020/12/20 02:05:49;;;;;;;20.75;11.77;;;;;;;-1.44;100.00;96530.91;1028963;28;20050;-77
2020/12/20 02:06:20;;;;;;;22.00;12.10;;;;;;;-1.38;100.00;96528.78;1032770;28;20030;-78
2020/12/20 02:06:51;;;;;;;18.98;11.45;;;;;;;-1.27;100.00;96550.78;1036991;28;20387;-77
2020/12/20 02:07:21;;;;;;;22.50;13.13;;;;;;;-1.30;100.00;96545.75;1032568;28;20022;-77
2020/12/20 02:07:52;;;;;;;20.80;11.80;;;;;;;-1.31;100.00;96546.69;1036929;28;20021;-77
2020/12/20 02:08:25;;;;;;;18.60;11.48;;;;;;;-1.31;100.00;96550.13;1032673;28;20033;-78
2020/12/20 02:08:56;;;;;;;19.52;11.35;;;;;;;-1.32;100.00;96551.06;1036869;28;20018;-77
2020/12/20 02:09:27;;;;;;;19.63;11.23;;;;;;;-1.35;100.00;96543.41;1024753;28;20215;-77
2020/12/20 02:09:58;;;;;;;23.90;13.50;;;;;;;-1.39;100.00;96532.31;1028701;28;20018;-78
2020/12/20 02:10:29;;;;;;;21.75;12.63;;;;;;;-1.33;100.00;96551.97;1024594;29;20123;-78
2020/12/20 02:11:08;;;;;;;21.05;11.57;;;;;;;-1.33;100.00;96551.97;1028589;28;20030;-77
2020/12/20 02:11:39;;;;;;;23.08;12.27;;;;;;;-1.31;100.00;96554.50;1032192;28;20033;-77
2020/12/20 02:12:10;;;;;;;19.88;11.75;;;;;;;-1.25;100.00;96554.16;1036585;28;20390;-77
2020/12/20 02:12:40;;;;;;;21.80;12.43;;;;;;;-1.28;100.00;96549.13;1032241;28;20023;-78
2020/12/20 02:13:11;;;;;;;21.50;12.73;;;;;;;-1.34;100.00;96539.88;1028241;28;20042;-78
2020/12/20 02:13:50;;;;;;;20.77;12.43;;;;;;;-1.23;100.00;96553.13;1032545;28;20096;-78
2020/12/20 02:14:21;;;;;;;20.58;12.00;;;;;;;-1.41;100.00;96522.91;1020643;28;20074;-78
2020/12/20 02:14:53;;;;;;;23.52;12.50;;;;;;;-1.33;100.00;96552.81;1032659;28;20041;-78
2020/12/20 02:15:24;;;;;;;24.40;12.95;;;;;;;-1.28;100.00;96549.13;1028502;28;20520;-77
2020/12/20 02:15:55;;;;;;;23.73;13.63;;;;;;;-1.35;100.00;96549.44;1036645;28;20028;-78
2020/12/20 02:16:26;;;;;;;25.30;12.95;;;;;;;-1.28;100.00;96549.94;1032341;28;20022;-77
2020/12/20 02:16:57;;;;;;;24.02;12.98;;;;;;;-1.27;100.00;96545.56;1032101;28;20023;-78
2020/12/20 02:17:28;;;;;;;22.25;12.15;;;;;;;-1.17;100.00;96544.09;1024318;28;20023;-77
2020/12/20 02:17:59;;;;;;;19.48;11.73;;;;;;;-1.08;100.00;96545.34;1036551;28;20105;-78
2020/12/20 02:18:30;;;;;;;22.13;13.05;;;;;;;-1.10;100.00;96542.00;1028122;28;20592;-78
2020/12/20 02:19:01;;;;;;;23.17;12.20;;;;;;;-1.14;100.00;96542.16;1031834;28;20030;-77
2020/12/20 02:19:31;;;;;;;19.95;12.10;;;;;;;-1.15;100.00;96548.31;1024450;28;20020;-78
2020/12/20 02:20:03;;;;;;;20.98;12.05;;;;;;;-1.08;100.00;96541.00;1024677;29;20047;-78
2020/12/20 02:20:34;;;;;;;21.50;12.25;;;;;;;-1.15;100.00;96540.50;1032984;28;20027;-78
2020/12/20 02:21:11;;;;;;;20.52;11.40;;;;;;;-1.05;100.00;96546.00;1032771;28;20022;-78
2020/12/20 02:21:42;;;;;;;19.88;11.57;;;;;;;-1.01;100.00;96538.84;1024986;29;20023;-78